sensor_id;sensor_type;location;lat;lon;timestamp;pressure;altitude;pressure_sealevel;temperature;humidity
71770;BME280;59605;52.122;5.420;2022-09-03T00:02:08;101290.03;;;22.76;43.13
71770;BME280;59605;52.122;5.420;2022-09-03T00:04:50;101290.16;;;22.74;43.20
71770;BME280;59605;52.122;5.420;2022-09-03T00:07:29;101282.44;;;22.73;43.84
71770;BME280;59605;52.122;5.420;2022-09-03T00:10:03;101291.09;;;22.73;43.89
71770;BME280;59605;52.122;5.420;2022-09-03T00:12:35;101283.97;;;22.75;43.96
71770;BME280;59605;52.122;5.420;2022-09-03T00:15:07;101282.31;;;22.74;43.86
71770;BME280;59605;52.122;5.420;2022-09-03T00:17:39;101286.59;;;22.75;43.95
71770;BME280;59605;52.122;5.420;2022-09-03T00:20:14;101285.75;;;22.75;43.84
71770;BME280;59605;52.122;5.420;2022-09-03T00:22:46;101290.16;;;22.74;43.86
71770;BME280;59605;52.122;5.420;2022-09-03T00:25:18;101284.09;;;22.74;43.49
71770;BME280;59605;52.122;5.420;2022-09-03T00:27:53;101282.44;;;22.73;43.57
71770;BME280;59605;52.122;5.420;2022-09-03T00:30:20;101285.88;;;22.73;43.70
71770;BME280;59605;52.122;5.420;2022-09-03T00:33:00;101278.84;;;22.74;43.70
71770;BME280;59605;52.122;5.420;2022-09-03T00:35:43;101278.13;;;22.72;43.58
71770;BME280;59605;52.122;5.420;2022-09-03T00:38:13;101278.00;;;22.73;43.53
71770;BME280;59605;52.122;5.420;2022-09-03T00:57:21;101279.13;;;22.71;43.54
71770;BME280;59605;52.122;5.420;2022-09-03T01:00:12;101271.34;;;22.69;43.50
71770;BME280;59605;52.122;5.420;2022-09-03T01:13:44;101264.47;;;22.68;43.47
71770;BME280;59605;52.122;5.420;2022-09-03T01:25:29;101278.50;;;22.67;43.70
71770;BME280;59605;52.122;5.420;2022-09-03T01:30:54;101282.06;;;22.66;43.42
71770;BME280;59605;52.122;5.420;2022-09-03T01:36:40;101289.13;;;22.65;43.66
71770;BME280;59605;52.122;5.420;2022-09-03T01:39:16;101287.31;;;22.66;43.42
71770;BME280;59605;52.122;5.420;2022-09-03T01:56:24;101283.19;;;22.63;43.48
71770;BME280;59605;52.122;5.420;2022-09-03T02:01:45;101282.22;;;22.64;43.46
71770;BME280;59605;52.122;5.420;2022-09-03T02:04:17;101288.44;;;22.63;43.77
71770;BME280;59605;52.122;5.420;2022-09-03T02:06:46;101285.81;;;22.63;43.37
71770;BME280;59605;52.122;5.420;2022-09-03T02:09:17;101284.00;;;22.64;43.28
71770;BME280;59605;52.122;5.420;2022-09-03T02:11:49;101278.06;;;22.62;43.76
71770;BME280;59605;52.122;5.420;2022-09-03T02:14:18;101279.72;;;22.63;43.25
71770;BME280;59605;52.122;5.420;2022-09-03T02:16:45;101278.88;;;22.62;43.35
71770;BME280;59605;52.122;5.420;2022-09-03T02:19:13;101271.16;;;22.61;43.32
71770;BME280;59605;52.122;5.420;2022-09-03T02:21:48;101281.63;;;22.61;43.69
71770;BME280;59605;52.122;5.420;2022-09-03T02:24:17;101274.59;;;22.61;43.55
71770;BME280;59605;52.122;5.420;2022-09-03T02:26:44;101271.03;;;22.62;43.52
71770;BME280;59605;52.122;5.420;2022-09-03T02:29:12;101280.69;;;22.62;43.67
71770;BME280;59605;52.122;5.420;2022-09-03T02:31:38;101282.47;;;22.61;43.36
71770;BME280;59605;52.122;5.420;2022-09-03T02:34:04;101278.16;;;22.60;43.54
71770;BME280;59605;52.122;5.420;2022-09-03T02:36:34;101275.53;;;22.60;43.17
71770;BME280;59605;52.122;5.420;2022-09-03T02:39:01;101266.03;;;22.59;43.60
71770;BME280;59605;52.122;5.420;2022-09-03T02:41:28;101279.97;;;22.60;43.51
71770;BME280;59605;52.122;5.420;2022-09-03T02:44:19;101275.66;;;22.59;43.25
71770;BME280;59605;52.122;5.420;2022-09-03T02:46:56;101271.28;;;22.59;43.24
71770;BME280;59605;52.122;5.420;2022-09-03T02:49:22;101273.06;;;22.59;43.23
71770;BME280;59605;52.122;5.420;2022-09-03T02:51:49;101267.81;;;22.59;43.20
71770;BME280;59605;52.122;5.420;2022-09-03T02:54:16;101268.78;;;22.58;43.56
71770;BME280;59605;52.122;5.420;2022-09-03T02:56:46;101267.00;;;22.58;43.37
71770;BME280;59605;52.122;5.420;2022-09-03T02:59:14;101266.16;;;22.58;43.36
71770;BME280;59605;52.122;5.420;2022-09-03T03:01:43;101268.66;;;22.59;43.59
71770;BME280;59605;52.122;5.420;2022-09-03T03:04:12;101269.63;;;22.58;43.34
71770;BME280;59605;52.122;5.420;2022-09-03T03:06:38;101262.69;;;22.57;43.31
71770;BME280;59605;52.122;5.420;2022-09-03T03:09:04;101263.69;;;22.56;43.32
71770;BME280;59605;52.122;5.420;2022-09-03T03:11:32;101267.94;;;22.57;43.20
71770;BME280;59605;52.122;5.420;2022-09-03T03:14:00;101260.22;;;22.56;43.42
71770;BME280;59605;52.122;5.420;2022-09-03T03:16:26;101261.06;;;22.56;43.10
71770;BME280;59605;52.122;5.420;2022-09-03T03:18:55;101268.06;;;22.56;43.15
71770;BME280;59605;52.122;5.420;2022-09-03T03:21:22;101256.75;;;22.55;43.44
71770;BME280;59605;52.122;5.420;2022-09-03T03:23:48;101260.22;;;22.56;43.11
71770;BME280;59605;52.122;5.420;2022-09-03T03:26:17;101253.19;;;22.56;43.54
71770;BME280;59605;52.122;5.420;2022-09-03T03:28:45;101247.09;;;22.56;43.04
71770;BME280;59605;52.122;5.420;2022-09-03T03:31:16;101246.28;;;22.55;43.17
71770;BME280;59605;52.122;5.420;2022-09-03T03:33:43;101251.53;;;22.55;43.22
71770;BME280;59605;52.122;5.420;2022-09-03T03:36:14;101248.91;;;22.55;43.39
71770;BME280;59605;52.122;5.420;2022-09-03T03:38:42;101251.53;;;22.55;43.01
71770;BME280;59605;52.122;5.420;2022-09-03T03:41:14;101251.66;;;22.54;43.20
71770;BME280;59605;52.122;5.420;2022-09-03T03:43:41;101253.44;;;22.53;43.41
71770;BME280;59605;52.122;5.420;2022-09-03T03:46:07;101248.22;;;22.53;43.25
71770;BME280;59605;52.122;5.420;2022-09-03T03:48:34;101251.66;;;22.54;43.34
71770;BME280;59605;52.122;5.420;2022-09-03T03:51:01;101255.22;;;22.53;43.04
71770;BME280;59605;52.122;5.420;2022-09-03T03:53:30;101262.25;;;22.52;43.16
71770;BME280;59605;52.122;5.420;2022-09-03T03:55:58;101257.84;;;22.53;43.28
71770;BME280;59605;52.122;5.420;2022-09-03T03:58:25;101261.31;;;22.53;43.14
71770;BME280;59605;52.122;5.420;2022-09-03T04:00:51;101265.69;;;22.53;43.05
71770;BME280;59605;52.122;5.420;2022-09-03T04:03:18;101269.28;;;22.52;43.22
71770;BME280;59605;52.122;5.420;2022-09-03T04:05:55;101259.63;;;22.52;43.17
71770;BME280;59605;52.122;5.420;2022-09-03T04:08:22;101252.59;;;22.53;43.24
71770;BME280;59605;52.122;5.420;2022-09-03T04:10:49;101261.44;;;22.52;43.31
71770;BME280;59605;52.122;5.420;2022-09-03T04:13:15;101263.19;;;22.51;43.30
71770;BME280;59605;52.122;5.420;2022-09-03T04:15:42;101262.25;;;22.52;43.02
71770;BME280;59605;52.122;5.420;2022-09-03T04:18:09;101255.34;;;22.51;43.43
71770;BME280;59605;52.122;5.420;2022-09-03T04:20:36;101257.97;;;22.51;43.21
71770;BME280;59605;52.122;5.420;2022-09-03T04:23:04;101254.53;;;22.51;43.39
71770;BME280;59605;52.122;5.420;2022-09-03T04:25:31;101252.84;;;22.49;43.21
71770;BME280;59605;52.122;5.420;2022-09-03T04:27:57;101253.78;;;22.48;43.33
71770;BME280;59605;52.122;5.420;2022-09-03T04:30:24;101250.22;;;22.49;43.17
71770;BME280;59605;52.122;5.420;2022-09-03T04:32:51;101252.84;;;22.49;43.36
71770;BME280;59605;52.122;5.420;2022-09-03T04:35:25;101256.41;;;22.48;43.11
71770;BME280;59605;52.122;5.420;2022-09-03T04:37:56;101252.97;;;22.48;43.40
71770;BME280;59605;52.122;5.420;2022-09-03T04:40:23;101252.97;;;22.48;43.06
71770;BME280;59605;52.122;5.420;2022-09-03T04:42:49;101247.75;;;22.48;43.16
71770;BME280;59605;52.122;5.420;2022-09-03T04:45:16;101246.91;;;22.47;43.29
71770;BME280;59605;52.122;5.420;2022-09-03T04:47:55;101246.06;;;22.47;43.28
71770;BME280;59605;52.122;5.420;2022-09-03T04:50:21;101243.44;;;22.47;42.98
71770;BME280;59605;52.122;5.420;2022-09-03T04:52:48;101245.25;;;22.46;42.86
71770;BME280;59605;52.122;5.420;2022-09-03T04:55:15;101247.03;;;22.46;43.25
71770;BME280;59605;52.122;5.420;2022-09-03T04:57:42;101250.47;;;22.46;43.20
71770;BME280;59605;52.122;5.420;2022-09-03T05:00:09;101254.91;;;22.46;43.25
71770;BME280;59605;52.122;5.420;2022-09-03T05:02:37;101246.19;;;22.45;43.31
71770;BME280;59605;52.122;5.420;2022-09-03T05:05:04;101254.06;;;22.45;43.12
71770;BME280;59605;52.122;5.420;2022-09-03T05:07:30;101258.47;;;22.45;42.94
71770;BME280;59605;52.122;5.420;2022-09-03T05:10:08;101262.75;;;22.46;42.98
71770;BME280;59605;52.122;5.420;2022-09-03T05:12:35;101271.44;;;22.46;42.90
71770;BME280;59605;52.122;5.420;2022-09-03T05:15:02;101263.72;;;22.45;43.16
71770;BME280;59605;52.122;5.420;2022-09-03T05:17:30;101259.28;;;22.45;43.12
71770;BME280;59605;52.122;5.420;2022-09-03T05:20:02;101270.63;;;22.46;43.25
71770;BME280;59605;52.122;5.420;2022-09-03T05:22:29;101266.31;;;22.45;42.98
71770;BME280;59605;52.122;5.420;2022-09-03T05:24:55;101257.66;;;22.44;42.87
71770;BME280;59605;52.122;5.420;2022-09-03T05:27:22;101255.03;;;22.44;43.08
71770;BME280;59605;52.122;5.420;2022-09-03T05:29:48;101260.28;;;22.44;42.91
71770;BME280;59605;52.122;5.420;2022-09-03T05:32:15;101247.16;;;22.44;43.21
71770;BME280;59605;52.122;5.420;2022-09-03T05:34:42;101258.47;;;22.45;43.18
71770;BME280;59605;52.122;5.420;2022-09-03T05:37:09;101256.78;;;22.44;43.27
71770;BME280;59605;52.122;5.420;2022-09-03T05:39:37;101248.94;;;22.44;43.21
71770;BME280;59605;52.122;5.420;2022-09-03T05:42:03;101251.56;;;22.44;43.11
71770;BME280;59605;52.122;5.420;2022-09-03T05:44:31;101251.56;;;22.44;42.83
71770;BME280;59605;52.122;5.420;2022-09-03T05:46:57;101253.34;;;22.43;42.96
71770;BME280;59605;52.122;5.420;2022-09-03T05:49:24;101248.13;;;22.43;42.97
71770;BME280;59605;52.122;5.420;2022-09-03T05:51:51;101252.53;;;22.43;42.83
71770;BME280;59605;52.122;5.420;2022-09-03T05:54:17;101253.34;;;22.43;42.80
71770;BME280;59605;52.122;5.420;2022-09-03T05:56:44;101260.41;;;22.43;42.99
71770;BME280;59605;52.122;5.420;2022-09-03T05:59:10;101258.59;;;22.43;43.32
71770;BME280;59605;52.122;5.420;2022-09-03T06:01:41;101259.53;;;22.42;43.27
71770;BME280;59605;52.122;5.420;2022-09-03T06:04:17;101256.09;;;22.42;43.21
71770;BME280;59605;52.122;5.420;2022-09-03T06:06:45;101265.63;;;22.43;42.93
71770;BME280;59605;52.122;5.420;2022-09-03T06:09:12;101257.78;;;22.43;43.02
71770;BME280;59605;52.122;5.420;2022-09-03T06:11:40;101264.78;;;22.42;43.31
71770;BME280;59605;52.122;5.420;2022-09-03T06:14:10;101264.78;;;22.42;43.27
71770;BME280;59605;52.122;5.420;2022-09-03T06:16:39;101258.72;;;22.42;43.12
71770;BME280;59605;52.122;5.420;2022-09-03T06:19:07;101263.97;;;22.42;42.98
71770;BME280;59605;52.122;5.420;2022-09-03T06:21:37;101263.09;;;22.41;43.19
71770;BME280;59605;52.122;5.420;2022-09-03T06:24:19;101260.50;;;22.41;43.40
71770;BME280;59605;52.122;5.420;2022-09-03T06:26:56;101260.50;;;22.41;43.30
71770;BME280;59605;52.122;5.420;2022-09-03T06:29:23;101258.72;;;22.42;43.04
71770;BME280;59605;52.122;5.420;2022-09-03T06:31:49;101254.44;;;22.41;43.47
71770;BME280;59605;52.122;5.420;2022-09-03T06:34:16;101250.00;;;22.41;43.11
71770;BME280;59605;52.122;5.420;2022-09-03T06:36:44;101254.31;;;22.42;43.05
71770;BME280;59605;52.122;5.420;2022-09-03T06:39:11;101250.00;;;22.41;43.51
71770;BME280;59605;52.122;5.420;2022-09-03T06:41:37;101250.88;;;22.42;43.24
71770;BME280;59605;52.122;5.420;2022-09-03T06:44:06;101258.72;;;22.42;43.15
71770;BME280;59605;52.122;5.420;2022-09-03T06:46:37;101255.25;;;22.41;43.39
71770;BME280;59605;52.122;5.420;2022-09-03T06:49:04;101253.47;;;22.42;43.37
71770;BME280;59605;52.122;5.420;2022-09-03T06:51:31;101254.31;;;22.42;43.50
71770;BME280;59605;52.122;5.420;2022-09-03T06:54:06;101257.88;;;22.41;43.30
71770;BME280;59605;52.122;5.420;2022-09-03T06:56:33;101270.88;;;22.43;43.47
71770;BME280;59605;52.122;5.420;2022-09-03T06:59:13;101261.34;;;22.42;43.23
71770;BME280;59605;52.122;5.420;2022-09-03T07:01:41;101262.28;;;22.41;43.24
71770;BME280;59605;52.122;5.420;2022-09-03T07:04:12;101263.97;;;22.42;43.58
71770;BME280;59605;52.122;5.420;2022-09-03T07:06:40;101267.41;;;22.42;43.33
71770;BME280;59605;52.122;5.420;2022-09-03T07:09:09;101259.53;;;22.42;43.75
71770;BME280;59605;52.122;5.420;2022-09-03T07:11:36;101260.50;;;22.41;43.33
71770;BME280;59605;52.122;5.420;2022-09-03T07:14:05;101257.88;;;22.41;43.36
71770;BME280;59605;52.122;5.420;2022-09-03T07:16:36;101263.00;;;22.43;43.42
71770;BME280;59605;52.122;5.420;2022-09-03T07:19:06;101263.09;;;22.41;43.79
71770;BME280;59605;52.122;5.420;2022-09-03T07:21:35;101264.78;;;22.42;43.47
71770;BME280;59605;52.122;5.420;2022-09-03T07:24:03;101260.50;;;22.41;43.41
71770;BME280;59605;52.122;5.420;2022-09-03T07:26:33;101269.19;;;22.42;43.92
71770;BME280;59605;52.122;5.420;2022-09-03T07:29:00;101264.78;;;22.42;43.56
71770;BME280;59605;52.122;5.420;2022-09-03T07:31:33;101263.84;;;22.43;44.06
71770;BME280;59605;52.122;5.420;2022-09-03T07:34:02;101269.88;;;22.44;44.00
71770;BME280;59605;52.122;5.420;2022-09-03T07:36:40;101263.97;;;22.42;43.73
71770;BME280;59605;52.122;5.420;2022-09-03T07:39:09;101267.28;;;22.44;43.67
71770;BME280;59605;52.122;5.420;2022-09-03T07:41:37;101268.25;;;22.43;43.79
71770;BME280;59605;52.122;5.420;2022-09-03T07:44:04;101263.84;;;22.43;43.83
71770;BME280;59605;52.122;5.420;2022-09-03T07:46:34;101262.03;;;22.44;44.17
71770;BME280;59605;52.122;5.420;2022-09-03T07:49:02;101268.25;;;22.43;44.18
71770;BME280;59605;52.122;5.420;2022-09-03T07:51:32;101266.44;;;22.43;44.27
71770;BME280;59605;52.122;5.420;2022-09-03T07:54:00;101264.66;;;22.44;43.99
71770;BME280;59605;52.122;5.420;2022-09-03T07:56:31;101270.75;;;22.44;44.37
71770;BME280;59605;52.122;5.420;2022-09-03T07:58:58;101264.66;;;22.44;44.14
71770;BME280;59605;52.122;5.420;2022-09-03T08:01:26;101263.84;;;22.43;44.37
71770;BME280;59605;52.122;5.420;2022-09-03T08:03:54;101267.28;;;22.44;44.65
71770;BME280;59605;52.122;5.420;2022-09-03T08:06:22;101260.28;;;22.44;45.44
71770;BME280;59605;52.122;5.420;2022-09-03T08:09:00;101267.28;;;22.44;45.06
71770;BME280;59605;52.122;5.420;2022-09-03T08:11:32;101265.50;;;22.44;45.56
71770;BME280;59605;52.122;5.420;2022-09-03T08:14:02;101269.75;;;22.45;45.16
71770;BME280;59605;52.122;5.420;2022-09-03T08:16:34;101262.88;;;22.44;44.94
71770;BME280;59605;52.122;5.420;2022-09-03T08:19:01;101263.72;;;22.45;44.99
71770;BME280;59605;52.122;5.420;2022-09-03T08:21:27;101266.44;;;22.43;44.44
71770;BME280;59605;52.122;5.420;2022-09-03T08:23:56;101257.66;;;22.44;44.72
71770;BME280;59605;52.122;5.420;2022-09-03T08:26:30;101269.88;;;22.44;44.56
71770;BME280;59605;52.122;5.420;2022-09-03T08:28:58;101270.75;;;22.44;44.45
71770;BME280;59605;52.122;5.420;2022-09-03T08:31:25;101275.00;;;22.45;44.31
71770;BME280;59605;52.122;5.420;2022-09-03T08:33:54;101274.19;;;22.45;44.50
71770;BME280;59605;52.122;5.420;2022-09-03T08:36:26;101275.00;;;22.45;44.67
71770;BME280;59605;52.122;5.420;2022-09-03T08:38:56;101273.25;;;22.46;44.53
71770;BME280;59605;52.122;5.420;2022-09-03T08:44:32;101269.75;;;22.45;44.88
71770;BME280;59605;52.122;5.420;2022-09-03T08:47:21;101273.25;;;22.46;44.63
71770;BME280;59605;52.122;5.420;2022-09-03T08:50:04;101268.81;;;22.46;44.69
71770;BME280;59605;52.122;5.420;2022-09-03T08:52:44;101276.69;;;22.46;44.83
71770;BME280;59605;52.122;5.420;2022-09-03T08:55:19;101268.00;;;22.46;44.94
71770;BME280;59605;52.122;5.420;2022-09-03T08:57:49;101271.44;;;22.46;44.78
71770;BME280;59605;52.122;5.420;2022-09-03T09:00:17;101273.13;;;22.47;44.88
71770;BME280;59605;52.122;5.420;2022-09-03T09:05:41;101273.94;;;22.48;44.65
71770;BME280;59605;52.122;5.420;2022-09-03T09:08:21;101267.88;;;22.47;44.56
71770;BME280;59605;52.122;5.420;2022-09-03T09:14:08;101267.75;;;22.49;44.48
71770;BME280;59605;52.122;5.420;2022-09-03T09:16:49;101270.38;;;22.49;44.84
71770;BME280;59605;52.122;5.420;2022-09-03T09:22:10;101278.09;;;22.51;44.58
71770;BME280;59605;52.122;5.420;2022-09-03T09:24:44;101268.44;;;22.51;44.49
71770;BME280;59605;52.122;5.420;2022-09-03T09:27:13;101268.44;;;22.51;44.81
71770;BME280;59605;52.122;5.420;2022-09-03T09:29:45;101264.06;;;22.52;44.39
71770;BME280;59605;52.122;5.420;2022-09-03T09:32:15;101258.91;;;22.50;44.56
71770;BME280;59605;52.122;5.420;2022-09-03T09:34:43;101266.56;;;22.53;44.57
71770;BME280;59605;52.122;5.420;2022-09-03T09:37:17;101268.31;;;22.53;44.75
71770;BME280;59605;52.122;5.420;2022-09-03T09:39:58;101263.06;;;22.53;44.61
71770;BME280;59605;52.122;5.420;2022-09-03T09:42:25;101263.94;;;22.53;44.72
71770;BME280;59605;52.122;5.420;2022-09-03T09:44:52;101266.56;;;22.53;44.46
71770;BME280;59605;52.122;5.420;2022-09-03T09:47:28;101263.94;;;22.53;44.72
71770;BME280;59605;52.122;5.420;2022-09-03T09:49:58;101262.94;;;22.54;44.48
71770;BME280;59605;52.122;5.420;2022-09-03T09:52:26;101263.94;;;22.53;44.45
71770;BME280;59605;52.122;5.420;2022-09-03T09:55:15;101262.13;;;22.54;44.48
71770;BME280;59605;52.122;5.420;2022-09-03T09:57:42;101263.81;;;22.55;44.48
71770;BME280;59605;52.122;5.420;2022-09-03T10:00:16;101258.56;;;22.55;44.85
71770;BME280;59605;52.122;5.420;2022-09-03T10:02:50;101256.75;;;22.55;44.79
71770;BME280;59605;52.122;5.420;2022-09-03T10:05:22;101252.34;;;22.56;44.55
71770;BME280;59605;52.122;5.420;2022-09-03T10:08:00;101254.16;;;22.55;44.69
71770;BME280;59605;52.122;5.420;2022-09-03T10:10:27;101251.53;;;22.55;44.65
71770;BME280;59605;52.122;5.420;2022-09-03T10:13:17;101250.59;;;22.56;44.78
71770;BME280;59605;52.122;5.420;2022-09-03T10:16:01;101254.03;;;22.57;44.41
71770;BME280;59605;52.122;5.420;2022-09-03T10:18:50;101256.63;;;22.57;44.80
71770;BME280;59605;52.122;5.420;2022-09-03T10:26:43;101244.34;;;22.57;44.59
71770;BME280;59605;52.122;5.420;2022-09-03T10:29:21;101240.91;;;22.57;44.71
71770;BME280;59605;52.122;5.420;2022-09-03T10:34:33;101239.97;;;22.58;44.51
71770;BME280;59605;52.122;5.420;2022-09-03T10:45:41;101240.78;;;22.58;44.66
71770;BME280;59605;52.122;5.420;2022-09-03T10:53:57;101235.44;;;22.60;44.94
71770;BME280;59605;52.122;5.420;2022-09-03T10:56:31;101237.09;;;22.61;44.85
71770;BME280;59605;52.122;5.420;2022-09-03T11:01:53;101231.84;;;22.61;44.72
71770;BME280;59605;52.122;5.420;2022-09-03T11:04:44;101234.34;;;22.62;44.79
71770;BME280;59605;52.122;5.420;2022-09-03T11:07:12;101236.97;;;22.62;45.01
71770;BME280;59605;52.122;5.420;2022-09-03T11:09:41;101238.66;;;22.63;44.83
71770;BME280;59605;52.122;5.420;2022-09-03T11:12:21;101236.03;;;22.63;44.85
71770;BME280;59605;52.122;5.420;2022-09-03T11:14:56;101230.66;;;22.65;44.97
71770;BME280;59605;52.122;5.420;2022-09-03T11:17:37;101236.72;;;22.65;44.78
71770;BME280;59605;52.122;5.420;2022-09-03T11:20:20;101229.69;;;22.66;45.14
71770;BME280;59605;52.122;5.420;2022-09-03T11:22:49;101227.91;;;22.66;45.13
71770;BME280;59605;52.122;5.420;2022-09-03T11:25:19;101223.50;;;22.67;44.77
71770;BME280;59605;52.122;5.420;2022-09-03T11:28:04;101224.31;;;22.67;45.05
71770;BME280;59605;52.122;5.420;2022-09-03T11:33:19;101223.34;;;22.69;44.94
71770;BME280;59605;52.122;5.420;2022-09-03T11:35:54;101226.81;;;22.69;45.24
71770;BME280;59605;52.122;5.420;2022-09-03T11:38:22;101218.94;;;22.69;45.28
71770;BME280;59605;52.122;5.420;2022-09-03T11:41:00;101214.56;;;22.70;44.94
71770;BME280;59605;52.122;5.420;2022-09-03T11:43:30;101208.22;;;22.72;45.25
71770;BME280;59605;52.122;5.420;2022-09-03T11:56:30;101200.94;;;22.76;44.98
71770;BME280;59605;52.122;5.420;2022-09-03T12:04:21;101204.16;;;22.79;45.21
71770;BME280;59605;52.122;5.420;2022-09-03T12:10:21;101205.53;;;22.83;45.39
71770;BME280;59605;52.122;5.420;2022-09-03T12:18:06;101208.88;;;22.86;45.17
71770;BME280;59605;52.122;5.420;2022-09-03T12:20:58;101215.75;;;22.87;45.44
71770;BME280;59605;52.122;5.420;2022-09-03T12:23:28;101215.66;;;22.88;45.14
71770;BME280;59605;52.122;5.420;2022-09-03T12:25:57;101211.25;;;22.89;45.14
71770;BME280;59605;52.122;5.420;2022-09-03T12:28:27;101212.91;;;22.90;45.41
71770;BME280;59605;52.122;5.420;2022-09-03T12:31:05;101208.34;;;22.92;45.23
71770;BME280;59605;52.122;5.420;2022-09-03T12:33:32;101208.34;;;22.92;45.10
71770;BME280;59605;52.122;5.420;2022-09-03T12:36:00;101207.28;;;22.94;45.44
71770;BME280;59605;52.122;5.420;2022-09-03T12:38:30;101210.72;;;22.95;45.53
71770;BME280;59605;52.122;5.420;2022-09-03T12:41:26;101208.91;;;22.95;45.28
71770;BME280;59605;52.122;5.420;2022-09-03T12:43:58;101214.88;;;22.97;45.63
71770;BME280;59605;52.122;5.420;2022-09-03T12:46:30;101217.38;;;22.99;45.54
71770;BME280;59605;52.122;5.420;2022-09-03T12:49:02;101216.41;;;23.00;45.42
71770;BME280;59605;52.122;5.420;2022-09-03T12:51:50;101213.66;;;23.01;45.20
71770;BME280;59605;52.122;5.420;2022-09-03T12:54:22;101212.69;;;23.02;45.54
71770;BME280;59605;52.122;5.420;2022-09-03T12:56:57;101214.22;;;23.05;45.58
71770;BME280;59605;52.122;5.420;2022-09-03T12:59:27;101206.38;;;23.05;45.70
71770;BME280;59605;52.122;5.420;2022-09-03T13:02:05;101210.53;;;23.08;45.72
71770;BME280;59605;52.122;5.420;2022-09-03T13:04:39;101207.91;;;23.08;45.71
71770;BME280;59605;52.122;5.420;2022-09-03T13:07:20;101205.97;;;23.10;45.52
71770;BME280;59605;52.122;5.420;2022-09-03T13:09:48;101203.97;;;23.13;45.62
71770;BME280;59605;52.122;5.420;2022-09-03T13:12:42;101201.34;;;23.13;45.54
71770;BME280;59605;52.122;5.420;2022-09-03T13:15:17;101212.53;;;23.15;45.45
71770;BME280;59605;52.122;5.420;2022-09-03T13:20:52;101208.81;;;23.18;45.60
71770;BME280;59605;52.122;5.420;2022-09-03T13:23:31;101203.56;;;23.18;45.63
71770;BME280;59605;52.122;5.420;2022-09-03T13:26:33;101209.38;;;23.22;45.76
71770;BME280;59605;52.122;5.420;2022-09-03T13:32:00;101193.63;;;23.22;45.56
71770;BME280;59605;52.122;5.420;2022-09-03T13:34:35;101203.03;;;23.24;45.62
71770;BME280;59605;52.122;5.420;2022-09-03T13:37:26;101208.16;;;23.26;45.62
71770;BME280;59605;52.122;5.420;2022-09-03T13:39:57;101201.13;;;23.26;45.74
71770;BME280;59605;52.122;5.420;2022-09-03T13:42:54;101201.00;;;23.28;45.98
71770;BME280;59605;52.122;5.420;2022-09-03T13:45:37;101200.88;;;23.29;45.59
71770;BME280;59605;52.122;5.420;2022-09-03T13:48:12;101201.81;;;23.28;45.67
71770;BME280;59605;52.122;5.420;2022-09-03T13:51:08;101197.28;;;23.30;46.05
71770;BME280;59605;52.122;5.420;2022-09-03T13:54:22;101198.25;;;23.29;45.73
71770;BME280;59605;52.122;5.420;2022-09-03T13:57:33;101203.50;;;23.29;45.89
71770;BME280;59605;52.122;5.420;2022-09-03T14:00:06;101197.41;;;23.29;46.02
71770;BME280;59605;52.122;5.420;2022-09-03T14:12:04;101194.22;;;23.25;45.76
71770;BME280;59605;52.122;5.420;2022-09-03T14:14:55;101200.41;;;23.24;46.16
71770;BME280;59605;52.122;5.420;2022-09-03T14:20:27;101202.34;;;23.22;45.95
71770;BME280;59605;52.122;5.420;2022-09-03T14:23:09;101202.34;;;23.22;46.07
71770;BME280;59605;52.122;5.420;2022-09-03T14:25:51;101192.69;;;23.23;46.21
71770;BME280;59605;52.122;5.420;2022-09-03T14:28:28;101197.94;;;23.23;45.94
71770;BME280;59605;52.122;5.420;2022-09-03T14:31:06;101200.41;;;23.24;46.24
71770;BME280;59605;52.122;5.420;2022-09-03T14:36:21;101201.28;;;23.25;46.06
71770;BME280;59605;52.122;5.420;2022-09-03T14:42:12;101199.34;;;23.27;46.24
71770;BME280;59605;52.122;5.420;2022-09-03T14:44:59;101197.53;;;23.27;45.91
71770;BME280;59605;52.122;5.420;2022-09-03T14:48:08;101199.19;;;23.28;46.17
71770;BME280;59605;52.122;5.420;2022-09-03T14:50:54;101198.25;;;23.29;46.09
71770;BME280;59605;52.122;5.420;2022-09-03T14:53:34;101196.44;;;23.30;46.13
71770;BME280;59605;52.122;5.420;2022-09-03T14:56:25;101192.88;;;23.31;46.31
71770;BME280;59605;52.122;5.420;2022-09-03T14:59:18;101193.56;;;23.33;46.00
71770;BME280;59605;52.122;5.420;2022-09-03T15:07:38;101188.75;;;23.38;46.38
71770;BME280;59605;52.122;5.420;2022-09-03T15:10:31;101199.81;;;23.42;46.29
71770;BME280;59605;52.122;5.420;2022-09-03T15:13:17;101197.91;;;23.44;46.25
71770;BME280;59605;52.122;5.420;2022-09-03T15:15:53;101197.78;;;23.45;46.43
71770;BME280;59605;52.122;5.420;2022-09-03T15:18:29;101193.22;;;23.47;46.00
71770;BME280;59605;52.122;5.420;2022-09-03T15:26:59;101185.06;;;23.50;46.17
71770;BME280;59605;52.122;5.420;2022-09-03T15:37:10;101203.03;;;23.55;46.32
71770;BME280;59605;52.122;5.420;2022-09-03T15:39:41;101199.44;;;23.56;46.36
71770;BME280;59605;52.122;5.420;2022-09-03T15:42:26;101205.53;;;23.57;46.25
71770;BME280;59605;52.122;5.420;2022-09-03T15:44:55;101198.50;;;23.57;46.18
71770;BME280;59605;52.122;5.420;2022-09-03T15:50:36;101198.38;;;23.59;46.48
71770;BME280;59605;52.122;5.420;2022-09-03T15:53:14;101198.38;;;23.59;46.49
71770;BME280;59605;52.122;5.420;2022-09-03T15:55:45;101200.03;;;23.60;46.25
71770;BME280;59605;52.122;5.420;2022-09-03T15:58:30;101205.16;;;23.61;46.76
71770;BME280;59605;52.122;5.420;2022-09-03T16:01:03;101198.22;;;23.60;46.15
71770;BME280;59605;52.122;5.420;2022-09-03T16:03:43;101196.44;;;23.61;46.52
71770;BME280;59605;52.122;5.420;2022-09-03T16:06:30;101204.16;;;23.62;46.64
71770;BME280;59605;52.122;5.420;2022-09-03T16:09:29;101196.28;;;23.62;46.26
71770;BME280;59605;52.122;5.420;2022-09-03T16:12:30;101200.59;;;23.63;46.37